Burlington, WA

8:49 AM PDT on July 23, 2016 (GMT -0700)
Bay View | | Change Station

Elev 89 ft 48.47 °N, 122.45 °W | Updated 18 minutes ago

Mostly Cloudy
Mostly Cloudy
54.4 °F
Feels Like 54.4 °F
N
0.0
Wind Variable Wind from NNW
Gusts 0.0 mph

Today
High -- | Low -- °F
--% Chance of Precip.
Yesterday
High -- | Low -- °F
Precip. -- in
Pressure 30.30 in
Visibility 10.0 miles
Clouds Few 1000 ft
Scattered Clouds 2500 ft
Mostly Cloudy 4100 ft
Dew Point Not available.
Humidity Not available.
Rainfall 0.00 in
Snow Depth Not available.
5:33 AM 8:57 PM
Waning Gibbous, 84% visible
SPECI KNUW 231533Z VRB03KT 10SM FEW010 SCT025 BKN041 16/11 A3030 RMK AO2 T01560111 $
Pressure 30.30 in
Visibility 10.0 miles
Clouds Few 1000 ft
Scattered Clouds 2500 ft
Mostly Cloudy 4100 ft
Dew Point Not available.
Humidity Not available.
Rainfall 0.00 in
Snow Depth Not available.
5:33 AM 8:57 PM
Waning Gibbous, 84% visible
SPECI KNUW 231533Z VRB03KT 10SM FEW010 SCT025 BKN041 16/11 A3030 RMK AO2 T01560111 $

10-Day Weather Forecast

Almanac

Astronomy

Jul. 23, 2016 Rise Set
Actual Time
Civil Twilight
Nautical Twilight
Astronomical Twilight
Moon
Length of Visible Light
Length of Day
Tomorrow will be .
, % of the Moon is Illuminated

Today's Extremes

State Highs State Lows

Community

WunderPhotos

Upload Photos

1,926,848 photos uploaded!

WunderBlog® & News

Nearby

Air Quality

  Air Quality AQ Index Pollutant
Not available.

Snow Depth

Station Depth Elevation

Earthquake Activity

City Distance Mag. Time & Date
Minimum magnitude displayed is 2.5.

Coastal Water Temperatures

Place Temperature

Stations

Nearby Weather Stations

Station Location Temp. Windchill Dew Point Humidity Wind Precip. Elev Updated Type
                   

Watches & Warnings

There are currently no watches in effect.